Time;durP1;ratioP1;P1;durP2;ratioP2;P2;SDS_P1;SDS_P2;PMS_P1;PMS_P2;Temp;Humidity;BMP_temperature;BMP_pressure;BME280_temperature;BME280_humidity;BME280_pressure;Samples;Min_cycle;Max_cycle;Signal;HPM_P1;HPM_P2
2022/02/12 00:00:03;;;;;;;6.65;2.30;;;25.00;64.80;;;;;;4136982;28;20042;-70
2022/02/12 00:02:26;;;;;;;5.78;2.38;;;25.00;65.00;;;;;;4144090;28;20443;-70
2022/02/12 00:04:48;;;;;;;7.80;2.50;;;25.00;65.00;;;;;;4128558;28;20037;-70
2022/02/12 00:07:11;;;;;;;5.72;2.13;;;24.90;65.60;;;;;;4125603;28;20043;-71
2022/02/12 00:09:34;;;;;;;5.75;2.17;;;24.90;65.60;;;;;;4148654;28;20202;-68
2022/02/12 00:11:56;;;;;;;5.35;1.85;;;24.90;65.50;;;;;;4125501;28;20038;-70
2022/02/12 00:14:19;;;;;;;4.50;2.05;;;24.90;65.80;;;;;;4137268;28;20106;-68
2022/02/12 00:16:42;;;;;;;4.30;1.98;;;24.90;65.70;;;;;;4135179;28;20419;-69
2022/02/12 00:19:04;;;;;;;5.05;1.92;;;24.90;65.50;;;;;;4120330;28;20046;-70
2022/02/12 00:21:27;;;;;;;5.47;1.70;;;24.90;65.50;;;;;;4134578;28;20038;-70
2022/02/12 00:23:55;;;;;;;5.97;1.77;;;24.90;65.50;;;;;;4135910;28;20132;-71
2022/02/12 00:26:20;;;;;;;5.07;2.17;;;24.90;65.30;;;;;;4147096;28;20095;-70
2022/02/12 00:28:42;;;;;;;6.10;2.00;;;24.90;65.60;;;;;;4148567;28;20467;-71
2022/02/12 00:31:05;;;;;;;3.88;1.70;;;24.90;65.60;;;;;;4120090;28;20424;-71
2022/02/12 00:33:29;;;;;;;6.43;1.88;;;24.90;65.70;;;;;;4124539;28;20038;-70
2022/02/12 00:35:51;;;;;;;6.07;1.92;;;24.90;65.90;;;;;;4140736;28;20041;-70
2022/02/12 00:38:14;;;;;;;6.78;2.05;;;24.90;65.60;;;;;;4146931;28;20119;-72
2022/02/12 00:40:36;;;;;;;3.65;1.77;;;24.90;65.50;;;;;;4148904;28;20041;-72
2022/02/12 00:42:58;;;;;;;4.00;1.67;;;24.90;65.50;;;;;;4136283;28;20042;-72
2022/02/12 00:45:21;;;;;;;4.93;1.98;;;24.90;65.20;;;;;;4150665;28;20074;-73
2022/02/12 00:47:43;;;;;;;5.85;1.98;;;24.90;66.00;;;;;;4135297;28;20049;-73
2022/02/12 00:50:07;;;;;;;5.38;2.20;;;24.90;66.00;;;;;;4136073;28;20038;-73
2022/02/12 00:52:29;;;;;;;4.68;1.65;;;24.90;65.70;;;;;;4120289;28;20046;-72
2022/02/12 00:54:52;;;;;;;5.50;1.90;;;25.00;65.90;;;;;;4119141;28;20042;-68
2022/02/12 00:57:15;;;;;;;3.70;1.70;;;25.00;66.00;;;;;;4121840;28;20050;-73
2022/02/12 00:59:37;;;;;;;6.30;1.92;;;24.90;66.00;;;;;;4134442;28;20057;-73
2022/02/12 01:01:59;;;;;;;8.63;2.00;;;24.90;66.00;;;;;;4135752;28;20495;-72
2022/02/12 01:04:22;;;;;;;6.85;2.00;;;24.90;66.10;;;;;;4136841;28;20042;-73
2022/02/12 01:06:45;;;;;;;4.07;1.70;;;24.90;65.90;;;;;;4127497;28;20123;-71
2022/02/12 01:09:08;;;;;;;6.10;1.92;;;24.90;66.20;;;;;;4134658;28;20058;-73
2022/02/12 01:11:30;;;;;;;5.63;1.60;;;24.90;66.00;;;;;;4133677;28;20175;-73
2022/02/12 01:13:53;;;;;;;7.05;1.75;;;24.90;66.10;;;;;;4138680;28;20045;-69
2022/02/12 01:16:15;;;;;;;4.70;1.92;;;24.90;66.20;;;;;;4138258;28;20057;-69
2022/02/12 01:18:38;;;;;;;7.32;2.47;;;24.90;66.40;;;;;;4139233;28;20081;-70
2022/02/12 01:21:00;;;;;;;4.18;1.60;;;24.90;66.70;;;;;;4151546;28;20112;-69
2022/02/12 01:23:23;;;;;;;3.05;1.75;;;24.90;65.90;;;;;;4139579;28;20100;-67
2022/02/12 01:25:48;;;;;;;6.30;2.00;;;24.90;66.70;;;;;;4137829;28;20038;-68
2022/02/12 01:28:11;;;;;;;5.05;1.60;;;24.90;66.70;;;;;;4137828;28;20144;-68
2022/02/12 01:30:34;;;;;;;3.80;1.55;;;24.90;66.80;;;;;;4139241;28;20234;-72
2022/02/12 01:32:56;;;;;;;2.97;1.65;;;24.90;66.60;;;;;;4124067;28;20046;-68
2022/02/12 01:35:19;;;;;;;4.18;1.48;;;24.90;66.50;;;;;;4135769;28;20175;-69
2022/02/12 01:37:41;;;;;;;5.82;1.83;;;24.90;66.50;;;;;;4144044;28;20054;-67
2022/02/12 01:40:06;;;;;;;3.20;1.50;;;24.90;66.40;;;;;;4134356;28;20034;-68
2022/02/12 01:42:28;;;;;;;3.83;1.63;;;24.90;66.20;;;;;;4138596;28;20041;-67
2022/02/12 01:44:51;;;;;;;4.40;1.90;;;24.80;66.50;;;;;;4138349;28;20127;-68
2022/02/12 01:47:14;;;;;;;4.57;1.95;;;24.80;66.40;;;;;;4137014;28;20141;-68
2022/02/12 01:49:37;;;;;;;4.78;1.88;;;24.80;66.10;;;;;;4138231;28;20091;-68
2022/02/12 01:52:00;;;;;;;7.28;1.90;;;24.80;66.20;;;;;;4151674;28;20088;-67
2022/02/12 01:54:28;;;;;;;3.10;1.73;;;24.80;66.30;;;;;;4151572;28;20033;-68
2022/02/12 01:56:52;;;;;;;2.35;1.40;;;24.80;66.20;;;;;;4137968;28;20578;-67
2022/02/12 01:59:15;;;;;;;5.45;1.83;;;24.80;66.20;;;;;;4121825;28;20514;-67
2022/02/12 02:01:56;;;;;;;5.35;1.75;;;24.80;66.40;;;;;;4130139;28;20464;-67
2022/02/12 02:04:19;;;;;;;5.65;2.22;;;24.80;66.40;;;;;;4137959;28;20680;-68
2022/02/12 02:06:43;;;;;;;4.53;1.50;;;24.80;66.60;;;;;;4151781;28;20576;-67
2022/02/12 02:09:08;;;;;;;4.40;2.00;;;24.80;66.70;;;;;;4138647;28;20171;-67
2022/02/12 02:11:31;;;;;;;8.07;2.30;;;24.80;66.50;;;;;;4137757;28;20053;-68
2022/02/12 02:13:53;;;;;;;2.38;1.55;;;24.80;66.20;;;;;;4136505;28;20061;-67
2022/02/12 02:16:16;;;;;;;3.88;1.85;;;24.80;66.50;;;;;;4138483;28;20108;-68
2022/02/12 02:18:39;;;;;;;5.57;2.20;;;24.80;66.50;;;;;;4138505;28;20041;-66
2022/02/12 02:21:01;;;;;;;6.30;2.30;;;24.80;66.70;;;;;;4137562;28;20082;-67
2022/02/12 02:23:24;;;;;;;4.00;2.22;;;24.80;66.80;;;;;;4137005;28;20089;-67
2022/02/12 03:02:46;;;;;;;5.90;1.67;;;24.90;67.30;;;;;;4130168;28;20065;-71
2022/02/12 03:05:08;;;;;;;5.80;1.90;;;24.90;67.50;;;;;;4139728;28;20044;-72
2022/02/12 03:07:31;;;;;;;4.75;1.88;;;24.90;67.10;;;;;;4126100;28;20035;-71
2022/02/12 03:09:53;;;;;;;4.68;1.70;;;24.90;67.40;;;;;;4130488;28;20037;-72
2022/02/12 03:12:16;;;;;;;3.28;1.77;;;24.80;67.50;;;;;;4139144;28;20065;-71
2022/02/12 03:14:38;;;;;;;3.85;1.80;;;24.80;67.40;;;;;;4124436;28;20128;-72
2022/02/12 03:17:01;;;;;;;4.90;1.70;;;24.80;67.20;;;;;;4125619;28;20128;-72
2022/02/12 03:19:23;;;;;;;4.65;1.40;;;24.80;67.00;;;;;;4125670;28;20145;-71
2022/02/12 03:21:46;;;;;;;4.88;1.83;;;24.80;67.10;;;;;;4138833;28;20064;-72
2022/02/12 03:24:08;;;;;;;3.20;1.70;;;24.80;67.40;;;;;;4138493;28;20033;-72
2022/02/12 03:26:31;;;;;;;3.95;1.50;;;24.80;67.20;;;;;;4112999;28;20124;-71
2022/02/12 03:28:53;;;;;;;4.03;1.50;;;24.80;67.20;;;;;;4139361;28;20545;-71
2022/02/12 03:31:16;;;;;;;4.07;1.65;;;24.80;67.00;;;;;;4138486;28;20045;-71
2022/02/12 03:33:39;;;;;;;3.63;1.42;;;24.80;67.10;;;;;;4139572;28;20049;-71
2022/02/12 03:36:01;;;;;;;5.43;1.80;;;24.80;67.00;;;;;;4129163;28;20120;-73
2022/02/12 03:38:33;;;;;;;4.00;1.60;;;24.80;67.10;;;;;;4138268;28;20491;-72
2022/02/12 03:41:00;;;;;;;6.10;1.98;;;24.80;67.20;;;;;;4138626;28;20049;-70
2022/02/12 03:43:23;;;;;;;4.22;1.50;;;24.80;67.70;;;;;;4138414;28;20049;-67
2022/02/12 03:45:49;;;;;;;5.00;1.67;;;24.80;67.40;;;;;;4135999;28;20156;-65
2022/02/12 03:48:12;;;;;;;5.00;1.58;;;24.80;67.40;;;;;;4109890;28;20165;-68
2022/02/12 03:50:35;;;;;;;2.77;1.50;;;24.80;67.10;;;;;;4123330;28;20479;-70
2022/02/12 03:52:58;;;;;;;3.42;1.70;;;24.80;67.70;;;;;;4135914;28;20053;-68
2022/02/12 03:55:21;;;;;;;4.95;1.67;;;24.80;67.50;;;;;;4137333;28;20038;-69
2022/02/12 03:57:44;;;;;;;7.60;1.75;;;24.70;67.50;;;;;;4109139;28;20050;-68
2022/02/12 04:00:12;;;;;;;4.15;2.03;;;24.70;67.50;;;;;;4122285;28;20126;-68
2022/02/12 04:02:34;;;;;;;2.97;1.38;;;24.70;68.10;;;;;;4128517;28;20168;-72
2022/02/12 04:04:57;;;;;;;4.60;1.67;;;24.70;67.70;;;;;;4135650;28;20128;-71
2022/02/12 04:07:19;;;;;;;3.00;1.50;;;24.70;67.50;;;;;;4121599;28;20038;-73
2022/02/12 04:09:42;;;;;;;2.65;1.25;;;24.70;68.10;;;;;;4137404;28;20209;-72
2022/02/12 04:12:05;;;;;;;3.13;1.70;;;24.70;68.20;;;;;;4123685;28;20042;-73
2022/02/12 04:14:27;;;;;;;5.30;1.80;;;24.70;68.10;;;;;;4123853;28;20535;-72
2022/02/12 04:16:53;;;;;;;3.42;1.63;;;24.70;69.40;;;;;;4122402;28;20059;-74
2022/02/12 04:19:15;;;;;;;2.83;1.40;;;24.70;68.60;;;;;;4138420;28;20112;-68
2022/02/12 04:21:38;;;;;;;4.32;1.50;;;24.70;68.70;;;;;;4123575;28;20161;-69
2022/02/12 04:24:01;;;;;;;3.65;1.60;;;24.70;68.70;;;;;;4124123;28;20042;-69
2022/02/12 04:26:23;;;;;;;3.55;1.63;;;24.70;69.00;;;;;;4122992;28;20046;-69
2022/02/12 04:28:46;;;;;;;7.28;1.40;;;24.70;68.50;;;;;;4123475;28;20046;-71
2022/02/12 04:31:23;;;;;;;3.88;1.30;;;24.70;68.70;;;;;;4134489;28;20049;-71
2022/02/12 04:33:45;;;;;;;2.05;1.30;;;24.70;68.60;;;;;;4138466;28;20042;-70
2022/02/12 04:36:08;;;;;;;7.32;4.97;;;24.70;68.70;;;;;;4137542;28;20057;-70
2022/02/12 04:38:31;;;;;;;9.30;7.53;;;24.70;68.50;;;;;;4122050;28;20047;-71
2022/02/12 04:40:53;;;;;;;14.70;13.50;;;24.70;68.30;;;;;;4117796;28;20378;-72
2022/02/12 04:43:16;;;;;;;31.00;28.15;;;24.70;68.20;;;;;;4120777;28;20054;-72
2022/02/12 04:45:39;;;;;;;37.80;34.30;;;24.70;68.80;;;;;;4111918;28;20129;-71
2022/02/12 04:48:02;;;;;;;35.85;32.20;;;24.70;69.30;;;;;;4120285;28;20044;-72
2022/02/12 04:50:25;;;;;;;30.42;27.63;;;24.70;69.30;;;;;;4105868;28;20046;-71
2022/02/12 04:52:47;;;;;;;22.65;20.38;;;24.80;69.40;;;;;;4120218;28;20057;-72
2022/02/12 04:55:10;;;;;;;20.80;18.80;;;24.80;69.40;;;;;;4128727;28;20042;-72
2022/02/12 04:57:33;;;;;;;16.95;15.10;;;24.80;69.40;;;;;;4106672;28;20154;-72
2022/02/12 04:59:55;;;;;;;16.03;14.27;;;24.70;69.20;;;;;;4125113;28;20045;-70
2022/02/12 05:02:18;;;;;;;13.15;11.38;;;24.70;69.10;;;;;;4130678;28;20337;-71
2022/02/12 05:04:40;;;;;;;11.75;10.55;;;24.70;69.10;;;;;;4136997;28;20124;-71
2022/02/12 05:07:03;;;;;;;10.10;9.13;;;24.70;69.40;;;;;;4136135;28;20177;-71
2022/02/12 05:09:26;;;;;;;7.60;6.25;;;24.70;68.10;;;;;;4136003;28;20041;-70
2022/02/12 05:11:52;;;;;;;6.43;5.72;;;24.70;68.10;;;;;;4135786;28;20042;-71
2022/02/12 05:14:16;;;;;;;7.53;4.47;;;24.70;68.30;;;;;;4123778;28;20571;-69
2022/02/12 05:16:38;;;;;;;5.63;4.18;;;24.70;68.10;;;;;;4121838;28;20172;-71
2022/02/12 05:19:01;;;;;;;5.40;3.08;;;24.60;68.10;;;;;;4122978;28;20135;-71
2022/02/12 05:21:24;;;;;;;5.47;3.17;;;24.60;68.50;;;;;;4122979;28;20050;-69
2022/02/12 05:23:47;;;;;;;5.35;3.20;;;24.60;68.10;;;;;;4123245;28;20114;-71
2022/02/12 05:26:12;;;;;;;6.80;3.00;;;24.60;68.10;;;;;;4118835;28;20118;-74
2022/02/12 05:28:41;;;;;;;4.60;2.05;;;24.60;67.90;;;;;;4135201;28;20061;-71
2022/02/12 05:31:13;;;;;;;4.75;2.20;;;24.60;68.10;;;;;;4134338;28;20107;-71
2022/02/12 05:33:44;;;;;;;7.13;2.35;;;24.60;67.90;;;;;;4135373;28;20143;-71
2022/02/12 05:36:23;;;;;;;4.97;2.00;;;24.60;67.80;;;;;;4143562;28;20511;-72
2022/02/12 05:38:46;;;;;;;3.55;1.95;;;24.60;68.10;;;;;;4124732;28;20577;-69
2022/02/12 05:41:10;;;;;;;6.28;1.80;;;24.60;68.10;;;;;;4120328;28;20500;-70
2022/02/12 05:43:33;;;;;;;3.33;1.40;;;24.60;67.80;;;;;;4135722;28;20133;-70
2022/02/12 05:45:59;;;;;;;5.60;1.70;;;24.60;67.60;;;;;;4127988;28;20045;-69
2022/02/12 05:48:21;;;;;;;4.45;1.90;;;24.60;67.70;;;;;;4136899;28;20049;-70
2022/02/12 05:50:44;;;;;;;6.50;2.08;;;24.60;67.60;;;;;;4129885;28;20038;-72
2022/02/12 05:53:16;;;;;;;9.07;2.23;;;24.60;67.70;;;;;;4110482;28;20074;-70
2022/02/12 05:55:44;;;;;;;6.55;1.70;;;24.60;67.80;;;;;;4130386;28;20038;-70
2022/02/12 05:58:06;;;;;;;4.05;1.58;;;24.60;67.70;;;;;;4135059;28;20065;-69
2022/02/12 06:00:29;;;;;;;6.40;1.83;;;24.60;67.40;;;;;;4126445;28;20046;-69
2022/02/12 06:03:02;;;;;;;4.88;1.88;;;24.60;67.40;;;;;;4146424;28;20045;-69
2022/02/12 06:05:33;;;;;;;3.97;1.60;;;24.60;67.40;;;;;;4140021;28;20049;-69
2022/02/12 06:08:05;;;;;;;4.40;1.70;;;24.50;67.40;;;;;;4152097;28;20046;-69
2022/02/12 06:10:37;;;;;;;4.38;1.63;;;24.60;67.30;;;;;;4138617;28;20045;-70
2022/02/12 06:13:08;;;;;;;4.43;1.70;;;24.60;67.20;;;;;;4138300;28;20123;-70
2022/02/12 06:15:40;;;;;;;5.32;1.60;;;24.50;67.00;;;;;;4138519;28;20073;-69
2022/02/12 06:18:08;;;;;;;3.85;1.58;;;24.50;67.20;;;;;;4144473;28;20077;-70
2022/02/12 06:20:32;;;;;;;3.53;1.65;;;24.50;67.10;;;;;;4138841;28;20435;-69
2022/02/12 06:22:54;;;;;;;4.55;1.52;;;24.50;67.00;;;;;;4138685;28;20042;-70
2022/02/12 06:25:23;;;;;;;4.25;1.75;;;24.50;67.10;;;;;;4138671;28;20041;-69
2022/02/12 06:27:58;;;;;;;3.30;1.58;;;24.50;67.00;;;;;;4145590;28;20069;-69
2022/02/12 06:30:24;;;;;;;3.78;1.40;;;24.50;67.00;;;;;;4146405;28;20053;-74
2022/02/12 06:32:46;;;;;;;5.10;1.42;;;24.50;66.90;;;;;;4138671;28;20053;-74
2022/02/12 06:35:09;;;;;;;5.50;1.75;;;24.50;67.00;;;;;;4132830;28;20042;-73
2022/02/12 06:37:41;;;;;;;5.77;1.63;;;24.40;66.90;;;;;;4137032;28;20533;-73
2022/02/12 06:40:10;;;;;;;4.20;1.50;;;24.50;66.90;;;;;;4152103;28;20033;-74
2022/02/12 06:42:32;;;;;;;3.13;1.40;;;24.40;66.80;;;;;;4153896;28;20359;-74
2022/02/12 06:44:54;;;;;;;6.40;1.58;;;24.40;66.80;;;;;;4139716;28;20128;-73
2022/02/12 06:47:23;;;;;;;4.25;1.23;;;24.40;66.80;;;;;;4126119;28;20111;-69
2022/02/12 06:49:46;;;;;;;4.25;1.50;;;24.40;66.70;;;;;;4132050;28;20045;-68
2022/02/12 06:52:08;;;;;;;4.20;1.50;;;24.40;66.70;;;;;;4135589;28;20042;-68
2022/02/12 06:54:35;;;;;;;3.05;1.42;;;24.40;66.70;;;;;;4138544;28;20442;-69
2022/02/12 07:00:34;;;;;;;4.95;1.48;;;24.40;66.50;;;;;;4132161;28;20155;-68
2022/02/12 07:02:57;;;;;;;4.57;1.58;;;24.40;66.60;;;;;;4139434;28;20129;-68
2022/02/12 07:05:20;;;;;;;3.33;1.13;;;24.40;66.50;;;;;;4136285;28;20042;-75
2022/02/12 07:07:48;;;;;;;5.32;1.10;;;24.40;66.60;;;;;;4124440;28;20049;-72
2022/02/12 07:10:10;;;;;;;3.53;1.20;;;24.40;66.70;;;;;;4141672;28;20490;-71
2022/02/12 07:12:33;;;;;;;3.13;1.50;;;24.40;66.60;;;;;;4141127;28;20038;-72
2022/02/12 07:14:55;;;;;;;3.90;1.33;;;24.40;66.80;;;;;;4111927;28;20043;-71
2022/02/12 07:17:26;;;;;;;4.47;1.50;;;24.40;66.80;;;;;;4138827;28;20102;-71
2022/02/12 07:19:58;;;;;;;3.33;1.85;;;24.40;66.80;;;;;;4142236;28;20045;-74
2022/02/12 07:22:26;;;;;;;7.70;2.25;;;24.40;66.90;;;;;;4138897;28;20083;-74
2022/02/12 07:24:49;;;;;;;5.03;1.58;;;24.40;67.20;;;;;;4140276;28;20038;-73
2022/02/12 07:27:11;;;;;;;3.92;1.25;;;24.40;67.10;;;;;;4121843;28;20479;-72
2022/02/12 07:29:43;;;;;;;3.42;1.60;;;24.40;67.00;;;;;;4124887;28;20365;-73
2022/02/12 07:32:09;;;;;;;2.70;1.45;;;24.40;67.10;;;;;;4130267;28;20045;-73
2022/02/12 07:34:32;;;;;;;3.10;1.23;;;24.40;67.00;;;;;;4127077;28;20076;-73
2022/02/12 07:36:54;;;;;;;3.08;1.23;;;24.40;67.00;;;;;;4141672;28;20034;-73
2022/02/12 07:39:17;;;;;;;3.92;1.20;;;24.30;66.90;;;;;;4127886;28;20042;-73
2022/02/12 07:41:39;;;;;;;5.25;1.38;;;24.30;67.30;;;;;;4133350;28;20045;-70
2022/02/12 07:44:11;;;;;;;3.80;1.42;;;24.30;67.00;;;;;;4114908;28;20081;-68
2022/02/12 07:46:43;;;;;;;4.18;1.65;;;24.40;67.30;;;;;;4120034;28;20685;-69
2022/02/12 07:49:15;;;;;;;3.22;1.27;;;24.30;67.30;;;;;;4113001;28;20440;-69
2022/02/12 07:51:43;;;;;;;2.67;1.02;;;24.30;67.30;;;;;;4119704;28;20046;-69
2022/02/12 07:54:15;;;;;;;4.13;1.20;;;24.30;67.30;;;;;;4113582;28;20042;-69
2022/02/12 07:56:49;;;;;;;4.07;1.90;;;24.30;67.50;;;;;;4113437;28;20126;-68
2022/02/12 07:59:17;;;;;;;;;;;24.30;67.40;;;;;;4120259;28;21029;-69
2022/02/12 08:01:40;;;;;;;2.97;1.10;;;24.30;67.00;;;;;;4112822;28;19910;-69
2022/02/12 08:04:03;;;;;;;3.80;1.45;;;24.30;67.50;;;;;;4120541;28;20046;-68
2022/02/12 08:09:15;;;;;;;3.25;1.25;;;24.30;67.70;;;;;;4127612;28;20130;-68
2022/02/12 08:11:46;;;;;;;3.63;1.38;;;24.30;67.70;;;;;;4115067;28;20068;-68
2022/02/12 08:14:08;;;;;;;5.18;2.20;;;24.30;67.80;;;;;;4122125;28;20663;-69
2022/02/12 08:16:40;;;;;;;2.42;1.45;;;24.20;68.50;;;;;;4118849;28;20419;-69
2022/02/12 08:19:09;;;;;;;3.33;1.92;;;24.20;67.80;;;;;;4118174;28;20105;-76
2022/02/12 08:21:42;;;;;;;3.80;2.00;;;24.20;68.00;;;;;;4110449;28;20031;-70
2022/02/12 08:24:14;;;;;;;;;;;;;;;;;;;;;
2022/02/12 08:26:46;;;;;;;3.85;2.10;;;24.20;68.00;;;;;;4130386;28;20117;-68
2022/02/12 08:29:17;;;;;;;6.90;2.38;;;24.20;67.90;;;;;;4110555;28;20053;-68
2022/02/12 08:31:52;;;;;;;5.18;1.80;;;24.20;67.80;;;;;;4133716;28;20038;-69
2022/02/12 08:34:27;;;;;;;5.32;1.95;;;24.20;68.20;;;;;;4130182;28;20070;-69
2022/02/12 08:36:51;;;;;;;5.20;1.90;;;24.20;67.90;;;;;;4134648;28;20163;-69
2022/02/12 08:39:35;;;;;;;5.45;1.92;;;24.20;68.00;;;;;;4121233;28;20086;-75
2022/02/12 08:41:57;;;;;;;4.40;1.60;;;24.20;67.80;;;;;;4123659;28;20038;-74
2022/02/12 08:44:25;;;;;;;3.70;1.77;;;24.10;67.50;;;;;;4133334;28;20050;-73
2022/02/12 08:46:48;;;;;;;2.92;1.55;;;24.10;67.90;;;;;;4119287;28;20054;-73
2022/02/12 08:49:12;;;;;;;2.55;1.25;;;24.10;68.00;;;;;;4115873;28;20136;-73
2022/02/12 08:51:44;;;;;;;4.25;1.80;;;24.10;67.90;;;;;;4129350;28;20124;-73
2022/02/12 08:54:15;;;;;;;3.05;1.35;;;24.10;67.80;;;;;;4119028;28;20045;-73
2022/02/12 08:56:47;;;;;;;4.28;1.60;;;24.10;67.80;;;;;;4130690;28;20041;-70
2022/02/12 08:59:19;;;;;;;3.83;1.35;;;24.10;67.80;;;;;;4133249;28;20062;-69
2022/02/12 09:01:50;;;;;;;4.47;1.70;;;24.10;67.90;;;;;;4119113;28;20530;-69
2022/02/12 09:04:22;;;;;;;2.10;1.10;;;24.10;67.80;;;;;;4118810;28;20062;-69
2022/02/12 09:06:51;;;;;;;4.53;1.33;;;24.10;67.90;;;;;;4129002;28;20127;-71
2022/02/12 09:09:23;;;;;;;2.33;1.20;;;24.10;68.00;;;;;;4133130;28;20088;-69
2022/02/12 09:11:57;;;;;;;3.75;1.25;;;24.00;67.80;;;;;;4117289;28;20033;-69
2022/02/12 09:14:26;;;;;;;3.42;1.20;;;24.00;67.80;;;;;;4129199;28;20049;-70
2022/02/12 09:16:59;;;;;;;4.00;1.52;;;24.10;68.10;;;;;;4112101;28;20869;-69
2022/02/12 09:19:48;;;;;;;3.38;1.40;;;24.00;68.00;;;;;;4130459;28;20054;-70
2022/02/12 09:22:20;;;;;;;3.25;1.42;;;24.00;68.00;;;;;;4117885;28;20482;-69
2022/02/12 09:24:42;;;;;;;3.45;1.23;;;24.00;68.10;;;;;;4129288;28;20107;-69
2022/02/12 09:27:06;;;;;;;1.33;0.90;;;24.00;68.20;;;;;;4123882;28;20038;-69
2022/02/12 09:29:58;;;;;;;;;;;;;;;;;;;;;
2022/02/12 09:32:30;;;;;;;2.53;1.27;;;24.00;68.00;;;;;;4128628;28;20072;-69
2022/02/12 09:34:59;;;;;;;2.53;1.33;;;24.00;68.10;;;;;;4126481;28;20061;-73
2022/02/12 09:37:22;;;;;;;2.60;0.98;;;24.00;68.20;;;;;;4131715;28;20038;-74
2022/02/12 09:39:44;;;;;;;2.65;1.40;;;24.00;68.20;;;;;;4127714;28;20038;-74
2022/02/12 09:42:16;;;;;;;1.90;0.88;;;24.00;68.20;;;;;;4140701;28;20038;-73
2022/02/12 09:44:47;;;;;;;1.83;1.20;;;24.00;68.10;;;;;;4134280;28;20046;-73
2022/02/12 09:48:04;;;;;;;1.60;0.80;;;24.00;68.20;;;;;;4135504;28;20459;-74
2022/02/12 09:50:33;;;;;;;2.20;1.10;;;24.00;68.10;;;;;;4075333;29;20154;-72
2022/02/12 09:53:18;;;;;;;;;;;;;;;;;;;;;
2022/02/12 09:59:17;;;;;;;2.28;1.15;;;24.00;67.90;;;;;;4117334;28;20054;-73
2022/02/12 10:02:09;;;;;;;1.90;1.05;;;23.90;68.30;;;;;;4122434;28;20076;-73
2022/02/12 10:04:37;;;;;;;2.20;1.20;;;23.90;68.00;;;;;;4097288;28;20053;-73
2022/02/12 10:07:53;;;;;;;1.85;1.15;;;23.90;68.30;;;;;;4139384;28;20049;-72
2022/02/12 10:10:28;;;;;;;2.65;0.98;;;23.90;68.10;;;;;;4126703;28;20133;-74
2022/02/12 10:16:21;;;;;;;1.48;0.98;;;23.90;68.10;;;;;;4138918;28;20117;-73
2022/02/12 10:19:11;;;;;;;1.88;0.88;;;23.90;68.50;;;;;;4123398;28;20057;-73
2022/02/12 10:22:07;;;;;;;2.60;1.60;;;23.90;68.50;;;;;;4115094;28;20038;-73
2022/02/12 10:25:17;;;;;;;2.58;1.13;;;23.90;68.20;;;;;;4114440;28;20080;-72
2022/02/12 10:27:52;;;;;;;2.72;1.30;;;23.80;68.20;;;;;;4061135;29;20656;-71
2022/02/12 10:30:17;;;;;;;2.10;1.25;;;23.80;68.40;;;;;;4072033;29;20043;-73
2022/02/12 10:32:53;;;;;;;1.77;1.20;;;23.80;68.60;;;;;;4073401;29;20051;-72
2022/02/12 10:35:18;;;;;;;2.65;0.93;;;23.80;68.50;;;;;;4072527;29;20106;-73
2022/02/12 10:38:34;;;;;;;;;;;;;;;;;;;;;
2022/02/12 10:41:36;;;;;;;3.03;1.58;;;23.80;68.40;;;;;;4088129;29;20039;-73
2022/02/12 10:44:02;;;;;;;1.77;0.80;;;23.80;68.40;;;;;;4139195;28;20096;-72
2022/02/12 10:46:48;;;;;;;;;;;;;;;;;;;;;
2022/02/12 10:49:14;;;;;;;2.35;1.10;;;23.80;68.70;;;;;;4139658;28;20100;-75
2022/02/12 10:52:30;;;;;;;;;;;;;;;;;;;;;
2022/02/12 10:55:06;;;;;;;;;;;;;;;;;;;;;
2022/02/12 10:57:36;;;;;;;3.00;1.25;;;23.80;68.70;;;;;;4140872;28;20037;-73
2022/02/12 11:00:01;;;;;;;1.88;1.00;;;23.70;68.70;;;;;;4138984;28;20432;-73
2022/02/12 11:02:25;;;;;;;1.73;1.15;;;23.70;68.80;;;;;;4124570;28;20050;-74
2022/02/12 11:05:06;;;;;;;3.80;1.35;;;23.70;68.80;;;;;;4122293;28;20106;-70
2022/02/12 11:07:32;;;;;;;3.50;1.30;;;23.70;68.80;;;;;;4122685;28;20053;-69
2022/02/12 11:10:11;;;;;;;;;;;;;;;;;;;;;
2022/02/12 11:12:37;;;;;;;3.63;1.13;;;23.70;68.80;;;;;;4140285;28;20124;-70
2022/02/12 11:19:01;;;;;;;2.30;1.33;;;23.70;68.80;;;;;;4091094;29;20098;-70
2022/02/12 11:22:38;;;;;;;;;;;;;;;;;;;;;
2022/02/12 11:25:01;;;;;;;3.25;1.35;;;23.70;68.60;;;;;;4002767;29;20571;-70
2022/02/12 11:34:10;;;;;;;2.65;1.35;;;23.60;68.80;;;;;;4019434;29;20648;-72
2022/02/12 11:36:34;;;;;;;3.92;1.40;;;23.60;69.00;;;;;;3984319;29;20050;-71
2022/02/12 11:45:49;;;;;;;2.25;1.15;;;23.60;68.90;;;;;;4044986;23;20461;-65
2022/02/12 11:48:13;;;;;;;2.42;1.20;;;23.60;69.20;;;;;;4130757;28;20084;-65
2022/02/12 11:51:03;;;;;;;4.70;1.75;;;23.60;69.20;;;;;;4131671;28;20128;-65
2022/02/12 11:53:37;;;;;;;5.78;1.17;;;23.60;69.00;;;;;;4142611;28;20065;-65
2022/02/12 11:56:01;;;;;;;3.50;1.38;;;23.60;69.40;;;;;;4146321;28;20033;-65
2022/02/12 11:58:46;;;;;;;2.60;1.02;;;23.60;69.20;;;;;;4148127;28;20034;-65
2022/02/12 12:01:28;;;;;;;1.50;1.13;;;23.50;68.90;;;;;;4147607;28;20304;-64
2022/02/12 12:04:22;;;;;;;3.45;1.50;;;23.60;69.00;;;;;;4146022;28;20120;-64
2022/02/12 12:07:09;;;;;;;4.65;1.63;;;23.50;69.20;;;;;;4147868;28;20668;-64
2022/02/12 12:09:37;;;;;;;5.03;1.70;;;23.50;69.00;;;;;;4147238;28;20727;-64
2022/02/12 12:12:14;;;;;;;3.25;1.35;;;23.50;69.20;;;;;;4130833;28;20802;-64
2022/02/12 12:14:37;;;;;;;3.47;1.80;;;23.50;69.10;;;;;;4131306;28;20099;-64
2022/02/12 12:17:03;;;;;;;4.28;1.60;;;23.50;69.20;;;;;;4130518;28;20034;-65
2022/02/12 12:19:46;;;;;;;4.25;1.45;;;23.50;69.10;;;;;;4131164;28;20057;-64
2022/02/12 12:22:13;;;;;;;3.70;1.70;;;23.50;69.10;;;;;;4129936;28;20037;-65
2022/02/12 12:24:35;;;;;;;3.85;1.88;;;23.50;69.20;;;;;;4130964;28;20054;-64
2022/02/12 12:26:58;;;;;;;3.38;1.38;;;23.50;69.20;;;;;;4131593;28;20037;-64
2022/02/12 12:32:10;;;;;;;5.53;1.52;;;23.50;69.20;;;;;;4124374;28;20068;-64
2022/02/12 12:34:34;;;;;;;2.80;1.40;;;23.40;69.20;;;;;;4131217;28;20129;-65
2022/02/12 12:36:57;;;;;;;3.58;1.20;;;23.40;69.30;;;;;;4130223;28;20056;-66
2022/02/12 12:39:19;;;;;;;2.72;1.30;;;23.50;69.10;;;;;;4131463;28;20520;-65
2022/02/12 12:41:45;;;;;;;3.25;1.55;;;23.50;69.10;;;;;;4131414;28;20507;-65
2022/02/12 12:44:23;;;;;;;2.70;1.38;;;23.40;69.20;;;;;;4131233;28;20037;-65
2022/02/12 12:46:53;;;;;;;4.18;1.45;;;23.40;69.10;;;;;;4129587;28;20139;-65
2022/02/12 12:49:40;;;;;;;3.78;1.52;;;23.40;69.10;;;;;;4130911;28;20069;-64
2022/02/12 12:52:03;;;;;;;5.85;1.90;;;23.40;68.90;;;;;;4130948;28;20042;-65
2022/02/12 12:54:38;;;;;;;4.72;2.00;;;23.40;69.20;;;;;;4130925;28;20080;-65
2022/02/12 12:57:02;;;;;;;5.63;1.77;;;23.40;69.20;;;;;;4117349;28;20054;-65
2022/02/12 12:59:24;;;;;;;4.15;1.50;;;23.40;69.10;;;;;;4132350;28;20076;-65
2022/02/12 13:02:05;;;;;;;6.88;1.83;;;23.40;69.20;;;;;;4141284;28;20046;-65
2022/02/12 13:04:28;;;;;;;4.78;1.80;;;23.40;69.20;;;;;;4133492;28;20195;-65
2022/02/12 13:06:52;;;;;;;4.38;1.70;;;23.40;69.60;;;;;;4134797;28;20050;-65
2022/02/12 13:09:14;;;;;;;3.85;1.30;;;23.30;69.20;;;;;;4134198;28;20042;-65
2022/02/12 13:11:38;;;;;;;3.55;1.40;;;23.30;69.20;;;;;;4135316;28;20108;-65
2022/02/12 13:14:08;;;;;;;5.55;1.70;;;23.30;69.10;;;;;;4134212;28;20041;-65
2022/02/12 13:16:42;;;;;;;5.28;1.67;;;23.30;69.20;;;;;;4133749;28;20042;-65
2022/02/12 13:19:19;;;;;;;4.45;1.88;;;23.30;69.10;;;;;;4133942;28;20054;-65
2022/02/12 13:21:58;;;;;;;5.00;1.38;;;23.30;69.20;;;;;;4134650;28;20044;-65
2022/02/12 13:24:21;;;;;;;6.07;1.90;;;23.30;69.20;;;;;;4133939;28;20140;-65
2022/02/12 13:26:44;;;;;;;3.97;1.67;;;23.30;69.20;;;;;;4133375;28;20201;-65
2022/02/12 13:29:29;;;;;;;5.45;1.98;;;23.30;69.20;;;;;;4134914;28;20038;-64
2022/02/12 13:32:02;;;;;;;4.28;1.60;;;23.30;69.10;;;;;;4127792;28;20045;-65
2022/02/12 13:34:31;;;;;;;4.75;2.25;;;23.30;69.20;;;;;;4134304;28;20523;-65
2022/02/12 13:36:55;;;;;;;5.22;1.75;;;23.30;69.30;;;;;;4141129;28;20080;-65
2022/02/12 13:39:19;;;;;;;5.15;1.77;;;23.30;69.30;;;;;;4134140;28;20081;-66
2022/02/12 13:41:42;;;;;;;4.70;1.73;;;23.30;69.80;;;;;;4134449;28;20038;-66
2022/02/12 13:44:04;;;;;;;6.38;1.98;;;23.20;69.30;;;;;;4134229;28;20157;-65
2022/02/12 13:46:27;;;;;;;3.97;1.63;;;23.20;69.40;;;;;;4133544;28;20072;-65
2022/02/12 13:48:49;;;;;;;5.50;1.90;;;23.20;69.30;;;;;;4133513;28;20224;-66
2022/02/12 13:51:19;;;;;;;4.65;1.80;;;23.20;69.30;;;;;;4123159;28;20129;-65
2022/02/12 13:53:48;;;;;;;4.68;1.70;;;23.20;69.30;;;;;;4133721;28;20046;-65
2022/02/12 13:56:11;;;;;;;4.55;2.03;;;23.20;69.40;;;;;;4134024;28;20042;-65
2022/02/12 13:58:34;;;;;;;4.05;1.65;;;23.20;70.00;;;;;;4133693;28;20057;-65
2022/02/12 14:01:00;;;;;;;6.90;1.65;;;23.20;69.40;;;;;;4132446;28;20124;-64
2022/02/12 14:03:43;;;;;;;3.88;1.58;;;23.20;69.50;;;;;;4133426;28;20077;-64
2022/02/12 14:06:06;;;;;;;3.92;1.42;;;23.20;69.30;;;;;;4133523;28;20206;-64
2022/02/12 14:08:29;;;;;;;4.35;1.55;;;23.20;69.50;;;;;;4133052;28;20042;-65